Denver, Colorado
Traffic Map
Current Weather Conditions
Denver, Colorado
Scattered Clouds Thunderstorm
Scattered Clouds
74°
Feels Like: 74°
Wind Chill: 74° Ceiling: Unl
Heat Index: 74° Visibility: 10mi
Dew Point: 56° Wind: 21mph
Humidity: 55% Direction: 170° (S)
Pressure: 30.11in Gusts: 32mph
Raw Report DataKBKF 300258Z 17018G28KT 10SM VCTS FEW070 SCT120 SCT200 23/14 A3011 RMK AO2A PK WND 18029/25 SLP119 T02320136 50011
Traffic Incident Summary
Active as of:
Severity:
Category:
InformationThere was an issue retrieving the traffic information for this location. Please try a different location or try again shortly.
Advertisements
Track Severe Weather on mobile